sensor_id;sensor_type;location;lat;lon;timestamp;P1;durP1;ratioP1;P2;durP2;ratioP2
47635;SDS011;33364;50.766;15.338;2023-09-12T00:01:44;11.95;;;8.52;;
47635;SDS011;33364;50.766;15.338;2023-09-12T00:04:10;9.82;;;8.82;;
47635;SDS011;33364;50.766;15.338;2023-09-12T00:06:37;12.55;;;8.95;;
47635;SDS011;33364;50.766;15.338;2023-09-12T00:09:02;10.10;;;8.18;;
47635;SDS011;33364;50.766;15.338;2023-09-12T00:11:31;9.63;;;7.53;;
47635;SDS011;33364;50.766;15.338;2023-09-12T00:13:57;10.10;;;8.95;;
47635;SDS011;33364;50.766;15.338;2023-09-12T00:16:24;12.73;;;7.68;;
47635;SDS011;33364;50.766;15.338;2023-09-12T00:18:50;8.43;;;7.53;;
47635;SDS011;33364;50.766;15.338;2023-09-12T00:21:16;8.85;;;7.95;;
47635;SDS011;33364;50.766;15.338;2023-09-12T00:23:42;9.45;;;8.20;;
47635;SDS011;33364;50.766;15.338;2023-09-12T00:26:08;10.13;;;8.45;;
47635;SDS011;33364;50.766;15.338;2023-09-12T00:28:33;9.88;;;8.30;;
47635;SDS011;33364;50.766;15.338;2023-09-12T00:30:59;10.27;;;8.82;;
47635;SDS011;33364;50.766;15.338;2023-09-12T00:33:25;9.80;;;8.75;;
47635;SDS011;33364;50.766;15.338;2023-09-12T00:35:51;16.75;;;9.00;;
47635;SDS011;33364;50.766;15.338;2023-09-12T00:38:17;9.65;;;8.25;;
47635;SDS011;33364;50.766;15.338;2023-09-12T00:40:43;11.07;;;8.30;;
47635;SDS011;33364;50.766;15.338;2023-09-12T00:43:09;12.18;;;8.30;;
47635;SDS011;33364;50.766;15.338;2023-09-12T00:45:35;10.73;;;7.78;;
47635;SDS011;33364;50.766;15.338;2023-09-12T00:48:01;13.15;;;8.15;;
47635;SDS011;33364;50.766;15.338;2023-09-12T00:50:30;13.13;;;7.93;;
47635;SDS011;33364;50.766;15.338;2023-09-12T00:52:57;14.40;;;8.40;;
47635;SDS011;33364;50.766;15.338;2023-09-12T00:55:23;13.55;;;8.00;;
47635;SDS011;33364;50.766;15.338;2023-09-12T00:57:49;9.25;;;7.95;;
47635;SDS011;33364;50.766;15.338;2023-09-12T01:00:16;9.65;;;8.20;;
47635;SDS011;33364;50.766;15.338;2023-09-12T01:02:43;10.98;;;8.68;;
47635;SDS011;33364;50.766;15.338;2023-09-12T01:05:11;9.52;;;8.43;;
47635;SDS011;33364;50.766;15.338;2023-09-12T01:07:39;11.80;;;9.75;;
47635;SDS011;33364;50.766;15.338;2023-09-12T01:10:08;9.63;;;8.65;;
47635;SDS011;33364;50.766;15.338;2023-09-12T01:12:34;9.73;;;8.80;;
47635;SDS011;33364;50.766;15.338;2023-09-12T01:15:01;10.93;;;9.30;;
47635;SDS011;33364;50.766;15.338;2023-09-12T01:17:29;8.75;;;7.68;;
47635;SDS011;33364;50.766;15.338;2023-09-12T01:19:55;10.35;;;8.10;;
47635;SDS011;33364;50.766;15.338;2023-09-12T01:22:26;12.27;;;8.20;;
47635;SDS011;33364;50.766;15.338;2023-09-12T01:25:15;10.00;;;9.00;;
47635;SDS011;33364;50.766;15.338;2023-09-12T01:27:52;12.57;;;8.77;;
47635;SDS011;33364;50.766;15.338;2023-09-12T01:30:21;10.48;;;8.90;;
47635;SDS011;33364;50.766;15.338;2023-09-12T01:32:48;11.13;;;8.25;;
47635;SDS011;33364;50.766;15.338;2023-09-12T01:35:14;9.65;;;8.45;;
47635;SDS011;33364;50.766;15.338;2023-09-12T01:37:40;9.15;;;8.18;;
47635;SDS011;33364;50.766;15.338;2023-09-12T01:40:06;10.57;;;8.48;;
47635;SDS011;33364;50.766;15.338;2023-09-12T01:42:36;10.80;;;8.93;;
47635;SDS011;33364;50.766;15.338;2023-09-12T01:45:04;9.48;;;8.35;;
47635;SDS011;33364;50.766;15.338;2023-09-12T01:47:31;10.75;;;8.60;;
47635;SDS011;33364;50.766;15.338;2023-09-12T01:49:58;12.18;;;8.10;;
47635;SDS011;33364;50.766;15.338;2023-09-12T01:52:26;10.60;;;9.55;;
47635;SDS011;33364;50.766;15.338;2023-09-12T01:54:53;12.52;;;9.57;;
47635;SDS011;33364;50.766;15.338;2023-09-12T01:57:21;12.38;;;9.02;;
47635;SDS011;33364;50.766;15.338;2023-09-12T01:59:47;15.90;;;9.00;;
47635;SDS011;33364;50.766;15.338;2023-09-12T02:02:15;9.10;;;8.15;;
47635;SDS011;33364;50.766;15.338;2023-09-12T02:04:41;9.95;;;8.13;;
47635;SDS011;33364;50.766;15.338;2023-09-12T02:07:12;10.32;;;8.07;;
47635;SDS011;33364;50.766;15.338;2023-09-12T02:09:38;10.32;;;8.93;;
47635;SDS011;33364;50.766;15.338;2023-09-12T02:12:04;11.40;;;8.80;;
47635;SDS011;33364;50.766;15.338;2023-09-12T02:14:29;10.00;;;9.00;;
47635;SDS011;33364;50.766;15.338;2023-09-12T02:16:55;11.13;;;8.45;;
47635;SDS011;33364;50.766;15.338;2023-09-12T02:19:21;11.43;;;8.77;;
47635;SDS011;33364;50.766;15.338;2023-09-12T02:21:47;11.10;;;8.80;;
47635;SDS011;33364;50.766;15.338;2023-09-12T02:24:12;10.75;;;9.23;;
47635;SDS011;33364;50.766;15.338;2023-09-12T02:26:38;13.45;;;9.77;;
47635;SDS011;33364;50.766;15.338;2023-09-12T02:29:04;10.95;;;8.45;;
47635;SDS011;33364;50.766;15.338;2023-09-12T02:31:32;11.13;;;9.35;;
47635;SDS011;33364;50.766;15.338;2023-09-12T02:33:58;10.38;;;8.88;;
47635;SDS011;33364;50.766;15.338;2023-09-12T02:36:24;11.55;;;9.50;;
47635;SDS011;33364;50.766;15.338;2023-09-12T02:38:50;11.55;;;9.40;;
47635;SDS011;33364;50.766;15.338;2023-09-12T02:41:16;10.25;;;8.32;;
47635;SDS011;33364;50.766;15.338;2023-09-12T02:43:41;11.02;;;8.88;;
47635;SDS011;33364;50.766;15.338;2023-09-12T02:46:07;10.20;;;9.00;;
47635;SDS011;33364;50.766;15.338;2023-09-12T02:48:33;10.05;;;9.05;;
47635;SDS011;33364;50.766;15.338;2023-09-12T02:50:58;10.93;;;9.82;;
47635;SDS011;33364;50.766;15.338;2023-09-12T02:53:24;13.93;;;9.50;;
47635;SDS011;33364;50.766;15.338;2023-09-12T02:55:51;10.13;;;8.27;;
47635;SDS011;33364;50.766;15.338;2023-09-12T02:58:16;12.48;;;9.02;;
47635;SDS011;33364;50.766;15.338;2023-09-12T03:00:42;9.88;;;8.35;;
47635;SDS011;33364;50.766;15.338;2023-09-12T03:03:08;11.20;;;8.40;;
47635;SDS011;33364;50.766;15.338;2023-09-12T03:05:35;9.82;;;8.68;;
47635;SDS011;33364;50.766;15.338;2023-09-12T03:08:01;9.90;;;8.20;;
47635;SDS011;33364;50.766;15.338;2023-09-12T03:10:28;11.13;;;8.75;;
47635;SDS011;33364;50.766;15.338;2023-09-12T03:12:53;9.32;;;8.30;;
47635;SDS011;33364;50.766;15.338;2023-09-12T03:15:19;12.25;;;8.73;;
47635;SDS011;33364;50.766;15.338;2023-09-12T03:17:45;11.95;;;9.13;;
47635;SDS011;33364;50.766;15.338;2023-09-12T03:20:11;11.93;;;8.52;;
47635;SDS011;33364;50.766;15.338;2023-09-12T03:22:36;9.43;;;8.00;;
47635;SDS011;33364;50.766;15.338;2023-09-12T03:25:03;9.35;;;8.10;;
47635;SDS011;33364;50.766;15.338;2023-09-12T03:27:31;10.60;;;8.85;;
47635;SDS011;33364;50.766;15.338;2023-09-12T03:29:58;8.75;;;7.85;;
47635;SDS011;33364;50.766;15.338;2023-09-12T03:32:23;11.23;;;8.30;;
47635;SDS011;33364;50.766;15.338;2023-09-12T03:34:49;11.48;;;8.70;;
47635;SDS011;33364;50.766;15.338;2023-09-12T03:37:15;12.07;;;9.85;;
47635;SDS011;33364;50.766;15.338;2023-09-12T03:39:41;10.10;;;9.10;;
47635;SDS011;33364;50.766;15.338;2023-09-12T03:42:06;9.50;;;8.30;;
47635;SDS011;33364;50.766;15.338;2023-09-12T03:44:32;12.60;;;8.80;;
47635;SDS011;33364;50.766;15.338;2023-09-12T03:46:58;9.52;;;8.23;;
47635;SDS011;33364;50.766;15.338;2023-09-12T03:49:24;11.63;;;8.25;;
47635;SDS011;33364;50.766;15.338;2023-09-12T03:51:49;14.15;;;7.93;;
47635;SDS011;33364;50.766;15.338;2023-09-12T03:54:15;11.10;;;7.95;;
47635;SDS011;33364;50.766;15.338;2023-09-12T03:56:41;9.45;;;8.50;;
47635;SDS011;33364;50.766;15.338;2023-09-12T03:59:07;9.48;;;8.48;;
47635;SDS011;33364;50.766;15.338;2023-09-12T04:01:32;11.77;;;8.27;;
47635;SDS011;33364;50.766;15.338;2023-09-12T04:03:58;10.45;;;7.97;;
47635;SDS011;33364;50.766;15.338;2023-09-12T04:06:24;8.48;;;7.57;;
47635;SDS011;33364;50.766;15.338;2023-09-12T04:08:50;8.52;;;7.68;;
47635;SDS011;33364;50.766;15.338;2023-09-12T04:11:15;9.93;;;8.90;;
47635;SDS011;33364;50.766;15.338;2023-09-12T04:13:41;10.30;;;8.45;;
47635;SDS011;33364;50.766;15.338;2023-09-12T04:16:07;8.95;;;7.70;;
47635;SDS011;33364;50.766;15.338;2023-09-12T04:18:33;11.07;;;7.45;;
47635;SDS011;33364;50.766;15.338;2023-09-12T04:20:58;11.02;;;8.75;;
47635;SDS011;33364;50.766;15.338;2023-09-12T04:23:24;10.70;;;8.82;;
47635;SDS011;33364;50.766;15.338;2023-09-12T04:25:50;10.10;;;8.45;;
47635;SDS011;33364;50.766;15.338;2023-09-12T04:28:17;10.38;;;8.88;;
47635;SDS011;33364;50.766;15.338;2023-09-12T04:30:42;8.82;;;7.93;;
47635;SDS011;33364;50.766;15.338;2023-09-12T04:33:08;12.77;;;9.32;;
47635;SDS011;33364;50.766;15.338;2023-09-12T04:35:34;12.63;;;8.88;;
47635;SDS011;33364;50.766;15.338;2023-09-12T04:38:00;10.80;;;8.82;;
47635;SDS011;33364;50.766;15.338;2023-09-12T04:40:26;13.50;;;9.63;;
47635;SDS011;33364;50.766;15.338;2023-09-12T04:42:53;9.38;;;8.15;;
47635;SDS011;33364;50.766;15.338;2023-09-12T04:45:19;13.60;;;7.72;;
47635;SDS011;33364;50.766;15.338;2023-09-12T04:47:45;9.77;;;8.32;;
47635;SDS011;33364;50.766;15.338;2023-09-12T04:50:10;9.63;;;8.63;;
47635;SDS011;33364;50.766;15.338;2023-09-12T04:52:37;13.35;;;9.35;;
47635;SDS011;33364;50.766;15.338;2023-09-12T04:55:03;9.70;;;7.82;;
47635;SDS011;33364;50.766;15.338;2023-09-12T04:57:29;11.45;;;9.30;;
47635;SDS011;33364;50.766;15.338;2023-09-12T04:59:56;10.52;;;8.90;;
47635;SDS011;33364;50.766;15.338;2023-09-12T05:02:24;11.10;;;8.70;;
47635;SDS011;33364;50.766;15.338;2023-09-12T05:04:50;10.18;;;8.75;;
47635;SDS011;33364;50.766;15.338;2023-09-12T05:07:17;9.77;;;8.75;;
47635;SDS011;33364;50.766;15.338;2023-09-12T05:09:42;14.50;;;9.52;;
47635;SDS011;33364;50.766;15.338;2023-09-12T05:12:08;11.90;;;8.90;;
47635;SDS011;33364;50.766;15.338;2023-09-12T05:14:34;10.98;;;8.93;;
47635;SDS011;33364;50.766;15.338;2023-09-12T05:17:00;12.25;;;9.45;;
47635;SDS011;33364;50.766;15.338;2023-09-12T05:19:27;10.63;;;9.38;;
47635;SDS011;33364;50.766;15.338;2023-09-12T05:21:55;10.10;;;9.05;;
47635;SDS011;33364;50.766;15.338;2023-09-12T05:24:20;10.38;;;8.30;;
47635;SDS011;33364;50.766;15.338;2023-09-12T05:26:46;15.10;;;9.27;;
47635;SDS011;33364;50.766;15.338;2023-09-12T05:29:14;10.57;;;7.25;;
47635;SDS011;33364;50.766;15.338;2023-09-12T05:31:40;9.93;;;8.07;;
47635;SDS011;33364;50.766;15.338;2023-09-12T05:34:06;15.93;;;8.30;;
47635;SDS011;33364;50.766;15.338;2023-09-12T05:36:33;18.85;;;8.73;;
47635;SDS011;33364;50.766;15.338;2023-09-12T05:38:58;11.93;;;8.23;;
47635;SDS011;33364;50.766;15.338;2023-09-12T05:41:24;9.90;;;8.80;;
47635;SDS011;33364;50.766;15.338;2023-09-12T05:43:50;11.10;;;9.07;;
47635;SDS011;33364;50.766;15.338;2023-09-12T05:46:16;22.17;;;9.43;;
47635;SDS011;33364;50.766;15.338;2023-09-12T05:48:41;10.35;;;8.88;;
47635;SDS011;33364;50.766;15.338;2023-09-12T05:51:07;9.63;;;8.63;;
47635;SDS011;33364;50.766;15.338;2023-09-12T05:53:33;9.25;;;8.32;;
47635;SDS011;33364;50.766;15.338;2023-09-12T05:55:59;9.15;;;8.20;;
47635;SDS011;33364;50.766;15.338;2023-09-12T05:58:24;10.90;;;8.55;;
47635;SDS011;33364;50.766;15.338;2023-09-12T06:00:50;10.30;;;8.23;;
47635;SDS011;33364;50.766;15.338;2023-09-12T06:03:16;10.05;;;8.52;;
47635;SDS011;33364;50.766;15.338;2023-09-12T06:05:42;9.60;;;8.00;;
47635;SDS011;33364;50.766;15.338;2023-09-12T06:08:08;9.50;;;8.40;;
47635;SDS011;33364;50.766;15.338;2023-09-12T06:10:34;14.10;;;8.13;;
47635;SDS011;33364;50.766;15.338;2023-09-12T06:13:00;8.88;;;7.97;;
47635;SDS011;33364;50.766;15.338;2023-09-12T06:15:26;10.27;;;8.00;;
47635;SDS011;33364;50.766;15.338;2023-09-12T06:17:51;9.73;;;8.73;;
47635;SDS011;33364;50.766;15.338;2023-09-12T06:20:17;10.40;;;8.50;;
47635;SDS011;33364;50.766;15.338;2023-09-12T06:22:43;8.55;;;7.65;;
47635;SDS011;33364;50.766;15.338;2023-09-12T06:25:09;12.07;;;7.93;;
47635;SDS011;33364;50.766;15.338;2023-09-12T06:27:34;11.30;;;9.15;;
47635;SDS011;33364;50.766;15.338;2023-09-12T06:30:00;11.35;;;7.85;;
47635;SDS011;33364;50.766;15.338;2023-09-12T06:32:26;9.65;;;8.20;;
47635;SDS011;33364;50.766;15.338;2023-09-12T06:34:52;11.82;;;7.63;;
47635;SDS011;33364;50.766;15.338;2023-09-12T06:37:18;7.55;;;6.85;;
47635;SDS011;33364;50.766;15.338;2023-09-12T06:39:44;9.35;;;8.30;;
47635;SDS011;33364;50.766;15.338;2023-09-12T06:42:09;8.68;;;7.20;;
47635;SDS011;33364;50.766;15.338;2023-09-12T06:44:36;9.68;;;8.55;;
47635;SDS011;33364;50.766;15.338;2023-09-12T06:47:03;10.93;;;8.18;;
47635;SDS011;33364;50.766;15.338;2023-09-12T06:49:30;10.50;;;8.45;;
47635;SDS011;33364;50.766;15.338;2023-09-12T06:51:57;8.70;;;7.80;;
47635;SDS011;33364;50.766;15.338;2023-09-12T06:54:23;13.02;;;8.95;;
47635;SDS011;33364;50.766;15.338;2023-09-12T06:56:48;10.15;;;8.65;;
47635;SDS011;33364;50.766;15.338;2023-09-12T06:59:14;9.02;;;8.13;;
47635;SDS011;33364;50.766;15.338;2023-09-12T07:01:40;12.10;;;8.43;;
47635;SDS011;33364;50.766;15.338;2023-09-12T07:04:06;12.98;;;8.60;;
47635;SDS011;33364;50.766;15.338;2023-09-12T07:06:31;9.57;;;8.57;;
47635;SDS011;33364;50.766;15.338;2023-09-12T07:08:58;9.32;;;8.05;;
47635;SDS011;33364;50.766;15.338;2023-09-12T07:11:24;11.30;;;7.68;;
47635;SDS011;33364;50.766;15.338;2023-09-12T07:13:50;10.38;;;7.07;;
47635;SDS011;33364;50.766;15.338;2023-09-12T07:16:15;9.88;;;8.38;;
47635;SDS011;33364;50.766;15.338;2023-09-12T07:18:41;9.70;;;8.23;;
47635;SDS011;33364;50.766;15.338;2023-09-12T07:21:07;9.63;;;8.40;;
47635;SDS011;33364;50.766;15.338;2023-09-12T07:23:33;10.52;;;7.90;;
47635;SDS011;33364;50.766;15.338;2023-09-12T07:25:58;10.35;;;9.02;;
47635;SDS011;33364;50.766;15.338;2023-09-12T07:28:25;10.70;;;8.10;;
47635;SDS011;33364;50.766;15.338;2023-09-12T07:30:52;10.95;;;8.70;;
47635;SDS011;33364;50.766;15.338;2023-09-12T07:33:18;9.48;;;8.52;;
47635;SDS011;33364;50.766;15.338;2023-09-12T07:35:44;10.38;;;8.00;;
47635;SDS011;33364;50.766;15.338;2023-09-12T07:38:09;10.65;;;7.63;;
47635;SDS011;33364;50.766;15.338;2023-09-12T07:40:35;10.90;;;8.93;;
47635;SDS011;33364;50.766;15.338;2023-09-12T07:43:01;10.05;;;9.05;;
47635;SDS011;33364;50.766;15.338;2023-09-12T07:45:27;10.65;;;8.27;;
47635;SDS011;33364;50.766;15.338;2023-09-12T07:47:55;10.90;;;8.43;;
47635;SDS011;33364;50.766;15.338;2023-09-12T07:50:20;9.55;;;8.65;;
47635;SDS011;33364;50.766;15.338;2023-09-12T07:52:46;9.77;;;8.35;;
47635;SDS011;33364;50.766;15.338;2023-09-12T07:55:12;9.85;;;8.85;;
47635;SDS011;33364;50.766;15.338;2023-09-12T07:57:38;9.23;;;7.95;;
47635;SDS011;33364;50.766;15.338;2023-09-12T08:00:04;9.65;;;7.70;;
47635;SDS011;33364;50.766;15.338;2023-09-12T08:02:36;10.48;;;8.00;;
47635;SDS011;33364;50.766;15.338;2023-09-12T08:05:02;8.18;;;7.38;;
47635;SDS011;33364;50.766;15.338;2023-09-12T08:07:28;9.77;;;8.20;;
47635;SDS011;33364;50.766;15.338;2023-09-12T08:09:57;13.32;;;7.78;;
47635;SDS011;33364;50.766;15.338;2023-09-12T08:12:24;8.75;;;7.88;;
47635;SDS011;33364;50.766;15.338;2023-09-12T08:14:51;10.55;;;8.32;;
47635;SDS011;33364;50.766;15.338;2023-09-12T08:17:17;10.15;;;8.40;;
47635;SDS011;33364;50.766;15.338;2023-09-12T08:19:43;10.73;;;8.02;;
47635;SDS011;33364;50.766;15.338;2023-09-12T08:22:10;10.18;;;7.88;;
47635;SDS011;33364;50.766;15.338;2023-09-12T08:24:36;8.38;;;7.50;;
47635;SDS011;33364;50.766;15.338;2023-09-12T08:27:03;10.23;;;8.30;;
47635;SDS011;33364;50.766;15.338;2023-09-12T08:29:29;11.35;;;8.68;;
47635;SDS011;33364;50.766;15.338;2023-09-12T08:31:56;10.20;;;8.40;;
47635;SDS011;33364;50.766;15.338;2023-09-12T08:34:22;11.07;;;8.32;;
47635;SDS011;33364;50.766;15.338;2023-09-12T08:36:48;10.77;;;8.77;;
47635;SDS011;33364;50.766;15.338;2023-09-12T08:39:14;10.50;;;8.05;;
47635;SDS011;33364;50.766;15.338;2023-09-12T08:41:42;11.85;;;8.02;;
47635;SDS011;33364;50.766;15.338;2023-09-12T08:44:08;11.50;;;9.43;;
47635;SDS011;33364;50.766;15.338;2023-09-12T08:46:34;13.25;;;9.20;;
47635;SDS011;33364;50.766;15.338;2023-09-12T08:49:02;12.25;;;8.85;;
47635;SDS011;33364;50.766;15.338;2023-09-12T08:51:31;13.40;;;8.77;;
47635;SDS011;33364;50.766;15.338;2023-09-12T08:53:57;9.85;;;8.85;;
47635;SDS011;33364;50.766;15.338;2023-09-12T08:56:23;14.45;;;9.35;;
47635;SDS011;33364;50.766;15.338;2023-09-12T08:58:50;14.05;;;9.07;;
47635;SDS011;33364;50.766;15.338;2023-09-12T09:01:16;10.20;;;9.07;;
47635;SDS011;33364;50.766;15.338;2023-09-12T09:03:44;13.88;;;9.23;;
47635;SDS011;33364;50.766;15.338;2023-09-12T09:06:11;14.48;;;9.02;;
47635;SDS011;33364;50.766;15.338;2023-09-12T09:08:37;14.02;;;8.23;;
47635;SDS011;33364;50.766;15.338;2023-09-12T09:11:04;13.30;;;9.25;;
47635;SDS011;33364;50.766;15.338;2023-09-12T09:13:33;10.85;;;9.05;;
47635;SDS011;33364;50.766;15.338;2023-09-12T09:16:12;9.10;;;8.20;;
47635;SDS011;33364;50.766;15.338;2023-09-12T09:21:28;9.85;;;8.32;;
47635;SDS011;33364;50.766;15.338;2023-09-12T09:23:58;9.73;;;7.80;;
47635;SDS011;33364;50.766;15.338;2023-09-12T09:26:25;9.77;;;8.77;;
47635;SDS011;33364;50.766;15.338;2023-09-12T09:29:15;10.73;;;8.63;;
47635;SDS011;33364;50.766;15.338;2023-09-12T09:31:43;9.70;;;8.43;;
47635;SDS011;33364;50.766;15.338;2023-09-12T09:34:19;12.32;;;8.25;;
47635;SDS011;33364;50.766;15.338;2023-09-12T09:36:48;11.40;;;8.98;;
47635;SDS011;33364;50.766;15.338;2023-09-12T09:39:15;10.73;;;8.68;;
47635;SDS011;33364;50.766;15.338;2023-09-12T09:41:46;14.82;;;9.70;;
47635;SDS011;33364;50.766;15.338;2023-09-12T09:44:16;12.38;;;8.27;;
47635;SDS011;33364;50.766;15.338;2023-09-12T09:46:43;8.88;;;8.07;;
47635;SDS011;33364;50.766;15.338;2023-09-12T09:49:15;11.07;;;7.97;;
47635;SDS011;33364;50.766;15.338;2023-09-12T09:51:44;16.08;;;8.98;;
47635;SDS011;33364;50.766;15.338;2023-09-12T09:54:13;9.85;;;8.10;;
47635;SDS011;33364;50.766;15.338;2023-09-12T09:59:16;10.60;;;7.75;;
47635;SDS011;33364;50.766;15.338;2023-09-12T10:01:44;9.73;;;8.15;;
47635;SDS011;33364;50.766;15.338;2023-09-12T10:04:11;9.07;;;8.10;;
47635;SDS011;33364;50.766;15.338;2023-09-12T10:06:37;12.55;;;7.53;;
47635;SDS011;33364;50.766;15.338;2023-09-12T10:09:09;10.05;;;7.47;;
47635;SDS011;33364;50.766;15.338;2023-09-12T10:11:37;8.70;;;7.22;;
47635;SDS011;33364;50.766;15.338;2023-09-12T10:14:06;14.68;;;8.15;;
47635;SDS011;33364;50.766;15.338;2023-09-12T10:16:38;9.00;;;7.43;;
47635;SDS011;33364;50.766;15.338;2023-09-12T10:24:41;12.85;;;7.30;;
47635;SDS011;33364;50.766;15.338;2023-09-12T10:27:09;11.55;;;8.10;;
47635;SDS011;33364;50.766;15.338;2023-09-12T10:29:37;9.27;;;7.43;;
47635;SDS011;33364;50.766;15.338;2023-09-12T10:32:03;8.50;;;7.05;;
47635;SDS011;33364;50.766;15.338;2023-09-12T10:34:30;10.35;;;7.38;;
47635;SDS011;33364;50.766;15.338;2023-09-12T10:36:57;15.38;;;8.77;;
47635;SDS011;33364;50.766;15.338;2023-09-12T10:39:26;9.15;;;8.20;;
47635;SDS011;33364;50.766;15.338;2023-09-12T10:41:52;11.50;;;7.80;;
47635;SDS011;33364;50.766;15.338;2023-09-12T10:44:19;8.93;;;7.60;;
47635;SDS011;33364;50.766;15.338;2023-09-12T10:46:47;11.57;;;7.47;;
47635;SDS011;33364;50.766;15.338;2023-09-12T10:49:14;7.85;;;6.85;;
47635;SDS011;33364;50.766;15.338;2023-09-12T10:51:41;11.50;;;7.40;;
47635;SDS011;33364;50.766;15.338;2023-09-12T10:54:12;10.82;;;7.57;;
47635;SDS011;33364;50.766;15.338;2023-09-12T10:56:39;9.50;;;7.22;;
47635;SDS011;33364;50.766;15.338;2023-09-12T11:01:35;11.30;;;7.45;;
47635;SDS011;33364;50.766;15.338;2023-09-12T11:06:49;10.63;;;6.60;;
47635;SDS011;33364;50.766;15.338;2023-09-12T11:09:21;8.48;;;6.13;;
47635;SDS011;33364;50.766;15.338;2023-09-12T11:11:48;7.20;;;6.50;;
47635;SDS011;33364;50.766;15.338;2023-09-12T11:14:19;6.82;;;6.22;;
47635;SDS011;33364;50.766;15.338;2023-09-12T11:19:46;10.07;;;7.28;;
47635;SDS011;33364;50.766;15.338;2023-09-12T11:22:25;11.88;;;8.20;;
47635;SDS011;33364;50.766;15.338;2023-09-12T11:24:52;8.07;;;7.13;;
47635;SDS011;33364;50.766;15.338;2023-09-12T11:27:20;12.18;;;6.85;;
47635;SDS011;33364;50.766;15.338;2023-09-12T11:29:47;8.07;;;6.75;;
47635;SDS011;33364;50.766;15.338;2023-09-12T11:32:24;9.98;;;7.38;;
47635;SDS011;33364;50.766;15.338;2023-09-12T11:34:52;9.48;;;7.07;;
47635;SDS011;33364;50.766;15.338;2023-09-12T11:37:24;7.63;;;6.80;;
47635;SDS011;33364;50.766;15.338;2023-09-12T11:39:51;6.68;;;6.07;;
47635;SDS011;33364;50.766;15.338;2023-09-12T11:42:18;8.45;;;7.20;;
47635;SDS011;33364;50.766;15.338;2023-09-12T11:44:43;7.90;;;6.28;;
47635;SDS011;33364;50.766;15.338;2023-09-12T11:47:12;11.13;;;7.07;;
47635;SDS011;33364;50.766;15.338;2023-09-12T11:49:39;6.97;;;6.38;;
47635;SDS011;33364;50.766;15.338;2023-09-12T11:52:09;7.68;;;6.88;;
47635;SDS011;33364;50.766;15.338;2023-09-12T11:54:40;14.90;;;8.15;;
47635;SDS011;33364;50.766;15.338;2023-09-12T11:57:07;9.30;;;7.20;;
47635;SDS011;33364;50.766;15.338;2023-09-12T11:59:41;9.82;;;7.03;;
47635;SDS011;33364;50.766;15.338;2023-09-12T12:02:11;10.43;;;7.00;;
47635;SDS011;33364;50.766;15.338;2023-09-12T12:04:36;8.75;;;7.68;;
47635;SDS011;33364;50.766;15.338;2023-09-12T12:07:03;7.80;;;7.10;;
47635;SDS011;33364;50.766;15.338;2023-09-12T12:09:30;9.75;;;7.57;;
47635;SDS011;33364;50.766;15.338;2023-09-12T12:11:56;8.68;;;7.80;;
47635;SDS011;33364;50.766;15.338;2023-09-12T12:14:25;10.93;;;7.82;;
47635;SDS011;33364;50.766;15.338;2023-09-12T12:16:52;8.23;;;6.75;;
47635;SDS011;33364;50.766;15.338;2023-09-12T12:19:18;8.45;;;7.63;;
47635;SDS011;33364;50.766;15.338;2023-09-12T12:21:44;12.13;;;10.02;;
47635;SDS011;33364;50.766;15.338;2023-09-12T12:24:11;10.90;;;7.68;;
47635;SDS011;33364;50.766;15.338;2023-09-12T12:26:42;10.07;;;7.88;;
47635;SDS011;33364;50.766;15.338;2023-09-12T12:29:09;9.90;;;7.40;;
47635;SDS011;33364;50.766;15.338;2023-09-12T12:31:37;8.30;;;7.40;;
47635;SDS011;33364;50.766;15.338;2023-09-12T12:34:04;10.95;;;8.35;;
47635;SDS011;33364;50.766;15.338;2023-09-12T12:36:31;11.85;;;8.10;;
47635;SDS011;33364;50.766;15.338;2023-09-12T12:38:57;8.55;;;7.65;;
47635;SDS011;33364;50.766;15.338;2023-09-12T12:41:26;8.07;;;7.28;;
47635;SDS011;33364;50.766;15.338;2023-09-12T12:43:56;12.95;;;7.80;;
47635;SDS011;33364;50.766;15.338;2023-09-12T12:46:26;8.73;;;7.82;;
47635;SDS011;33364;50.766;15.338;2023-09-12T12:48:53;9.95;;;8.27;;
47635;SDS011;33364;50.766;15.338;2023-09-12T12:51:21;9.90;;;7.75;;
47635;SDS011;33364;50.766;15.338;2023-09-12T12:53:49;8.48;;;7.45;;
47635;SDS011;33364;50.766;15.338;2023-09-12T12:56:18;9.38;;;8.10;;
47635;SDS011;33364;50.766;15.338;2023-09-12T12:58:54;8.43;;;7.57;;
47635;SDS011;33364;50.766;15.338;2023-09-12T13:01:23;9.25;;;7.13;;
47635;SDS011;33364;50.766;15.338;2023-09-12T13:03:50;10.38;;;7.13;;
47635;SDS011;33364;50.766;15.338;2023-09-12T13:06:16;9.57;;;7.05;;
47635;SDS011;33364;50.766;15.338;2023-09-12T13:08:43;13.20;;;7.22;;
47635;SDS011;33364;50.766;15.338;2023-09-12T13:11:11;9.45;;;6.40;;
47635;SDS011;33364;50.766;15.338;2023-09-12T13:13:38;10.38;;;6.70;;
47635;SDS011;33364;50.766;15.338;2023-09-12T13:16:04;9.60;;;6.57;;
47635;SDS011;33364;50.766;15.338;2023-09-12T13:18:32;13.63;;;7.38;;
47635;SDS011;33364;50.766;15.338;2023-09-12T13:20:58;8.00;;;6.65;;
47635;SDS011;33364;50.766;15.338;2023-09-12T13:23:24;8.38;;;6.80;;
47635;SDS011;33364;50.766;15.338;2023-09-12T13:25:50;7.85;;;6.22;;
47635;SDS011;33364;50.766;15.338;2023-09-12T13:28:16;7.93;;;6.28;;
47635;SDS011;33364;50.766;15.338;2023-09-12T13:30:43;10.90;;;7.10;;
47635;SDS011;33364;50.766;15.338;2023-09-12T13:33:10;8.27;;;6.90;;
47635;SDS011;33364;50.766;15.338;2023-09-12T13:35:37;10.00;;;6.75;;
47635;SDS011;33364;50.766;15.338;2023-09-12T13:38:03;8.00;;;7.07;;
47635;SDS011;33364;50.766;15.338;2023-09-12T13:40:40;9.52;;;7.88;;
47635;SDS011;33364;50.766;15.338;2023-09-12T13:43:07;8.73;;;7.07;;
47635;SDS011;33364;50.766;15.338;2023-09-12T13:45:34;7.93;;;6.72;;
47635;SDS011;33364;50.766;15.338;2023-09-12T13:48:00;8.93;;;7.13;;
47635;SDS011;33364;50.766;15.338;2023-09-12T13:50:27;9.80;;;7.60;;
47635;SDS011;33364;50.766;15.338;2023-09-12T13:52:59;11.32;;;6.90;;
47635;SDS011;33364;50.766;15.338;2023-09-12T13:55:35;6.80;;;6.03;;
47635;SDS011;33364;50.766;15.338;2023-09-12T13:58:02;13.70;;;6.55;;
47635;SDS011;33364;50.766;15.338;2023-09-12T14:00:29;8.80;;;6.60;;
47635;SDS011;33364;50.766;15.338;2023-09-12T14:02:55;10.77;;;7.05;;
47635;SDS011;33364;50.766;15.338;2023-09-12T14:05:21;8.15;;;6.95;;
47635;SDS011;33364;50.766;15.338;2023-09-12T14:07:47;9.13;;;7.05;;
47635;SDS011;33364;50.766;15.338;2023-09-12T14:10:13;8.45;;;6.40;;
47635;SDS011;33364;50.766;15.338;2023-09-12T14:12:40;7.97;;;7.13;;
47635;SDS011;33364;50.766;15.338;2023-09-12T14:15:07;7.93;;;7.10;;
47635;SDS011;33364;50.766;15.338;2023-09-12T14:17:33;8.93;;;7.00;;
47635;SDS011;33364;50.766;15.338;2023-09-12T14:19:59;7.63;;;6.82;;
47635;SDS011;33364;50.766;15.338;2023-09-12T14:22:24;12.90;;;8.13;;
47635;SDS011;33364;50.766;15.338;2023-09-12T14:24:50;10.68;;;7.53;;
47635;SDS011;33364;50.766;15.338;2023-09-12T14:27:16;9.27;;;7.10;;
47635;SDS011;33364;50.766;15.338;2023-09-12T14:29:42;8.35;;;7.55;;
47635;SDS011;33364;50.766;15.338;2023-09-12T14:32:11;11.35;;;7.63;;
47635;SDS011;33364;50.766;15.338;2023-09-12T14:34:37;9.15;;;7.03;;
47635;SDS011;33364;50.766;15.338;2023-09-12T14:37:03;13.15;;;7.38;;
47635;SDS011;33364;50.766;15.338;2023-09-12T14:39:29;10.85;;;7.80;;
47635;SDS011;33364;50.766;15.338;2023-09-12T14:41:54;8.73;;;7.88;;
47635;SDS011;33364;50.766;15.338;2023-09-12T14:44:21;9.43;;;6.70;;